Serra, Brazil
Current Conditions -  °F | °C
As of 6:00 AM on Wednesday 22 Oct 2014 (Local Time) from SBVT Reporting Station
Broken Clouds Broken Clouds  
Wind Chill: 21°   Ceiling: 3500
Heat Index: 21°   Visibility: 6mi
Dew Point: 16°   Wind: 13mph
Humidity: 73%   Direction: 210°SSW
Pressure: 30.09"   Gusts: NA
Location:  20.13°S, 40.32°W
Report Text: SBVT 220800Z 21011KT 9999 SCT015 BKN035 21/16 Q1019
Loading
Personal Weather Stations






























Interactive Weather Map
Tropical Storm Tracking
New forecast layout! Learn more

10-Day Weather Forecast

Advertisements
Track Severe Weather on mobile